Time;durP1;ratioP1;P1;durP2;ratioP2;P2;SDS_P1;SDS_P2;PMS_P1;PMS_P2;Temp;Humidity;BMP_temperature;BMP_pressure;BME280_temperature;BME280_humidity;BME280_pressure;Samples;Min_cycle;Max_cycle;Signal;HPM_P1;HPM_P2
2023/03/31 00:00:42;;;;;;;7.35;0.60;;;;;;;10.71;86.47;100359.81;5033865;28;96740;-29
2023/03/31 00:03:09;;;;;;;2.35;0.50;;;;;;;10.68;86.74;100354.59;5035985;27;96859;-30
2023/03/31 00:05:36;;;;;;;0.45;0.22;;;;;;;10.65;87.73;100349.41;5037101;28;98028;-29
2023/03/31 00:08:02;;;;;;;6.13;1.10;;;;;;;10.66;87.50;100348.44;5035615;27;100837;-29
2023/03/31 00:10:30;;;;;;;4.65;1.27;;;;;;;10.67;87.37;100336.63;5036991;27;96539;-29
2023/03/31 00:12:56;;;;;;;5.38;1.00;;;;;;;10.71;88.13;100321.91;5037389;27;96761;-29
2023/03/31 00:15:22;;;;;;;3.15;0.75;;;;;;;10.71;88.36;100330.88;5035225;27;101047;-29
2023/03/31 00:17:47;;;;;;;1.20;0.68;;;;;;;10.75;88.20;100317.97;5037192;28;98282;-30
2023/03/31 00:20:13;;;;;;;4.00;0.63;;;;;;;10.74;88.59;100310.84;5037129;27;96643;-29
2023/03/31 00:22:41;;;;;;;3.83;0.40;;;;;;;10.79;87.80;100311.38;5037360;27;96758;-30
2023/03/31 00:25:08;;;;;;;4.05;0.93;;;;;;;10.79;87.62;100297.81;5035356;28;100869;-29
2023/03/31 00:27:34;;;;;;;0.98;0.47;;;;;;;10.81;87.64;100302.16;5036524;28;99258;-33
2023/03/31 00:29:59;;;;;;;2.03;0.63;;;;;;;10.81;88.15;100299.44;5036691;27;96655;-30
2023/03/31 00:32:25;;;;;;;4.88;0.77;;;;;;;10.81;88.50;100290.47;5037084;27;96876;-32
2023/03/31 00:34:51;;;;;;;1.90;0.82;;;;;;;10.85;87.98;100286.56;5036324;27;100681;-30
2023/03/31 00:37:16;;;;;;;0.88;0.47;;;;;;;10.83;88.87;100278.53;5036739;27;98129;-29
2023/03/31 00:39:42;;;;;;;1.77;0.47;;;;;;;10.85;89.71;100281.16;5036986;27;96625;-29
2023/03/31 00:42:11;;;;;;;4.68;0.52;;;;;;;10.88;89.65;100270.06;5037059;27;96753;-29
2023/03/31 00:44:58;;;;;;;0.98;0.45;;;;;;;10.90;90.28;100273.53;5035092;28;101202;-29
2023/03/31 00:47:26;;;;;;;2.42;0.50;;;;;;;10.93;89.78;100264.31;5036136;28;97907;-29
2023/03/31 00:49:55;;;;;;;1.10;0.45;;;;;;;10.94;89.95;100266.03;5036827;27;96582;-29
2023/03/31 00:52:31;;;;;;;2.42;0.70;;;;;;;10.96;89.05;100262.25;5035851;28;96827;-30
2023/03/31 00:55:02;;;;;;;1.08;0.32;;;;;;;10.98;90.11;100251.31;5034702;28;101458;-29
2023/03/31 00:57:31;;;;;;;1.63;0.43;;;;;;;11.01;89.78;100245.66;5036531;28;98020;-29
2023/03/31 01:00:00;;;;;;;1.50;0.43;;;;;;;11.04;89.55;100245.44;5034773;28;96773;-29
2023/03/31 01:02:27;;;;;;;6.75;0.55;;;;;;;11.04;90.53;100246.31;5036507;28;96786;-30
2023/03/31 01:05:00;;;;;;;1.33;0.55;;;;;;;11.02;90.66;100228.44;5034776;28;101051;-29
2023/03/31 01:07:43;;;;;;;2.47;0.70;;;;;;;10.99;91.61;100234.09;5036053;27;99199;-29
2023/03/31 01:10:09;;;;;;;;;;;;;;;11.00;91.05;100233.94;5036748;28;96606;-29
2023/03/31 01:12:41;;;;;;;2.40;0.57;;;;;;;10.96;91.70;100221.59;5036676;28;96792;-29
2023/03/31 01:15:07;;;;;;;1.15;0.35;;;;;;;10.96;91.98;100220.72;5034020;27;101477;-29
2023/03/31 01:17:33;;;;;;;1.65;0.68;;;;;;;10.96;92.32;100213.47;5035086;28;100496;-30
2023/03/31 01:20:23;;;;;;;1.55;0.45;;;;;;;10.98;91.92;100214.22;5034903;28;96762;-29
2023/03/31 01:23:05;;;;;;;2.97;0.57;;;;;;;10.94;91.83;100199.19;5034844;28;96745;-28
2023/03/31 01:26:01;;;;;;;0.45;0.30;;;;;;;10.94;93.41;100196.47;5035457;27;99475;-29
2023/03/31 01:28:45;;;;;;;3.75;0.73;;;;;;;10.93;93.26;100186.59;5035476;28;97075;-29
2023/03/31 01:31:20;;;;;;;1.90;0.68;;;;;;;10.91;94.12;100185.84;5036161;27;96633;-29
2023/03/31 01:33:48;;;;;;;4.05;0.85;;;;;;;10.91;93.17;100179.56;5036142;27;96961;-29
2023/03/31 01:36:41;;;;;;;4.18;0.82;;;;;;;10.89;95.45;100178.81;5035494;27;99646;-31
2023/03/31 01:39:25;;;;;;;1.48;0.60;;;;;;;10.88;95.48;100166.25;5034332;28;101058;-29
2023/03/31 01:41:53;;;;;;;0.43;0.22;;;;;;;10.87;95.38;100161.78;5036213;28;96707;-29
2023/03/31 01:44:36;;;;;;;2.20;0.60;;;;;;;10.86;94.92;100160.94;5036303;28;96822;-29
2023/03/31 01:47:12;;;;;;;3.70;0.38;;;;;;;10.83;95.29;100150.34;5033991;28;101788;-29
2023/03/31 01:49:50;;;;;;;3.88;0.52;;;;;;;10.81;95.92;100149.59;5034073;28;100708;-29
2023/03/31 01:52:28;;;;;;;1.25;0.57;;;;;;;10.80;96.25;100142.44;5033985;28;96636;-29
2023/03/31 01:55:11;;;;;;;2.78;0.43;;;;;;;10.79;95.70;100121.72;5036013;28;96444;-31
2023/03/31 01:58:02;;;;;;;2.85;0.57;;;;;;;10.75;96.50;100118.41;5033907;28;101317;-29
2023/03/31 02:00:33;;;;;;;2.58;0.60;;;;;;;10.74;97.03;100115.78;5035658;28;97961;-28
2023/03/31 02:03:15;;;;;;;2.20;0.98;;;;;;;10.73;97.26;100114.09;5035963;27;96643;-30
2023/03/31 02:05:47;;;;;;;0.70;0.38;;;;;;;10.72;97.47;100101.50;5035744;27;96542;-29
2023/03/31 02:08:20;;;;;;;3.03;0.75;;;;;;;10.69;96.43;100102.59;5033912;28;100573;-29
2023/03/31 02:10:47;;;;;;;1.08;0.63;;;;;;;10.64;97.24;100088.53;5035607;27;99445;-31
2023/03/31 02:13:14;;;;;;;4.75;0.63;;;;;;;10.64;97.72;100080.41;5034149;28;96524;-29
2023/03/31 02:15:43;;;;;;;1.90;0.40;;;;;;;10.64;97.08;100066.88;5035562;27;96776;-29
2023/03/31 02:18:17;;;;;;;2.03;0.55;;;;;;;10.63;97.03;100059.72;5034339;27;97430;-29
2023/03/31 02:20:46;;;;;;;1.92;0.70;;;;;;;10.60;96.52;100044.53;5033865;27;101216;-29
2023/03/31 02:23:14;;;;;;;1.90;0.75;;;;;;;10.55;98.11;100041.31;5033946;28;96686;-29
2023/03/31 02:26:01;;;;;;;2.92;0.30;;;;;;;10.55;97.55;100035.91;5033302;27;96895;-29
2023/03/31 02:28:28;;;;;;;1.70;0.47;;;;;;;10.52;98.17;100024.47;5032619;28;101347;-29
2023/03/31 02:31:30;;;;;;;7.90;0.80;;;;;;;10.50;98.79;100021.84;5033542;27;101113;-29
2023/03/31 02:33:55;;;;;;;4.40;0.77;;;;;;;10.47;98.90;100000.44;5035057;28;96675;-29
2023/03/31 02:36:21;;;;;;;2.38;0.22;;;;;;;10.42;99.49;99989.09;5035292;27;96920;-29
2023/03/31 02:38:52;;;;;;;3.92;0.38;;;;;;;10.41;98.84;99990.91;5034732;27;99914;-29
2023/03/31 02:41:17;;;;;;;1.17;0.22;;;;;;;10.42;99.01;99978.25;5033357;28;100424;-29
2023/03/31 02:43:42;;;;;;;4.75;0.77;;;;;;;10.44;98.68;99975.41;5034393;27;96633;-29
2023/03/31 02:46:08;;;;;;;4.88;0.80;;;;;;;10.38;98.34;99964.06;5034872;27;96781;-31
2023/03/31 02:48:39;;;;;;;5.72;0.50;;;;;;;10.37;98.30;99954.25;5034605;28;98210;-29
2023/03/31 02:51:07;;;;;;;1.38;0.65;;;;;;;10.35;98.35;99942.66;5033219;28;101225;-29
2023/03/31 02:53:48;;;;;;;1.40;0.70;;;;;;;10.34;97.71;99943.63;5034548;27;96599;-29
2023/03/31 02:56:28;;;;;;;0.98;0.73;;;;;;;10.29;97.91;99928.72;5035208;27;96609;-29
2023/03/31 02:59:29;;;;;;;3.88;0.30;;;;;;;10.33;97.87;99935.63;5016893;28;101450;-29
2023/03/31 03:02:03;;;;;;;0.30;0.17;;;;;;;10.30;98.14;99935.88;5021097;27;98348;-29
2023/03/31 03:04:48;;;;;;;2.13;0.40;;;;;;;10.27;98.54;99930.63;5035187;27;96592;-29
2023/03/31 03:07:32;;;;;;;2.60;0.47;;;;;;;10.24;98.03;99920.03;5033579;28;96583;-29
2023/03/31 03:10:06;;;;;;;0.22;0.22;;;;;;;10.21;98.32;99916.59;5033761;28;99458;-29
2023/03/31 03:12:57;;;;;;;0.85;0.50;;;;;;;10.19;98.48;99913.13;5033084;27;101028;-30
2023/03/31 03:15:43;;;;;;;0.55;0.30;;;;;;;10.17;98.21;99895.28;5033256;28;96556;-29
2023/03/31 03:18:09;;;;;;;0.93;0.40;;;;;;;10.18;98.19;99895.19;5034988;27;96636;-29
2023/03/31 03:20:34;;;;;;;0.43;0.28;;;;;;;10.14;98.05;99885.56;5034049;28;98843;-29
2023/03/31 03:23:00;;;;;;;1.75;0.20;;;;;;;10.16;98.49;99882.75;5034463;27;98076;-29
2023/03/31 03:25:25;;;;;;;0.95;0.30;;;;;;;10.15;99.14;99873.75;5034839;27;96470;-30
2023/03/31 03:27:52;;;;;;;2.67;0.73;;;;;;;10.13;98.60;99861.31;5033547;27;96882;-29
2023/03/31 03:30:17;;;;;;;0.70;0.20;;;;;;;10.10;99.40;99861.53;5033978;28;99442;-29
2023/03/31 03:32:43;;;;;;;1.88;0.65;;;;;;;10.08;99.75;99853.56;5034074;27;99653;-29
2023/03/31 03:35:09;;;;;;;0.57;0.28;;;;;;;10.10;98.79;99829.94;5033718;27;96509;-29
2023/03/31 03:37:34;;;;;;;2.63;0.60;;;;;;;10.12;100.00;99832.53;5033575;28;96812;-30
2023/03/31 03:40:00;;;;;;;0.88;0.65;;;;;;;10.09;99.87;99820.09;5037760;27;97957;-29
2023/03/31 03:42:25;;;;;;;0.50;0.45;;;;;;;10.08;100.00;99812.09;5037494;27;99326;-29
2023/03/31 03:44:50;;;;;;;2.47;0.80;;;;;;;10.10;100.00;99807.44;5038045;27;96531;-30
2023/03/31 03:47:16;;;;;;;1.00;0.40;;;;;;;10.09;100.00;99792.19;5037931;27;96818;-29
2023/03/31 03:49:41;;;;;;;6.18;1.00;;;;;;;10.07;100.00;99778.78;5037271;27;97940;-29
2023/03/31 03:52:07;;;;;;;1.42;0.45;;;;;;;10.09;100.00;99790.34;5038048;27;97735;-29
2023/03/31 03:54:32;;;;;;;1.70;0.75;;;;;;;10.08;100.00;99783.22;5037737;27;96585;-29
2023/03/31 03:56:57;;;;;;;3.58;0.93;;;;;;;10.09;100.00;99759.72;5037892;27;96773;-29
2023/03/31 03:59:23;;;;;;;1.52;0.60;;;;;;;10.13;100.00;99764.78;5037026;27;97872;-29
2023/03/31 04:01:49;;;;;;;3.38;0.82;;;;;;;10.15;99.83;99765.53;5037599;27;97475;-29
2023/03/31 04:04:14;;;;;;;1.38;0.65;;;;;;;10.16;100.00;99759.13;5037489;27;96506;-33
2023/03/31 04:06:40;;;;;;;0.65;0.40;;;;;;;10.13;100.00;99737.72;5035978;28;96973;-29
2023/03/31 04:09:07;;;;;;;3.65;0.70;;;;;;;10.14;100.00;99738.56;5035755;27;100928;-29
2023/03/31 04:11:32;;;;;;;0.75;0.65;;;;;;;10.12;100.00;99738.69;5035590;28;99854;-28
2023/03/31 04:13:58;;;;;;;1.27;0.55;;;;;;;10.11;100.00;99728.84;5037334;27;96425;-29
2023/03/31 04:16:24;;;;;;;1.17;0.70;;;;;;;10.14;100.00;99725.03;5036400;28;96857;-30
2023/03/31 04:18:55;;;;;;;2.67;0.68;;;;;;;10.16;100.00;99723.94;5035638;28;100908;-31
2023/03/31 04:21:22;;;;;;;2.45;0.80;;;;;;;10.15;100.00;99713.22;5036948;27;99413;-28
2023/03/31 04:23:49;;;;;;;3.97;0.82;;;;;;;10.12;100.00;99698.09;5035455;28;96687;-29
2023/03/31 04:26:17;;;;;;;1.52;0.68;;;;;;;10.14;100.00;99690.72;5035526;28;96806;-29
2023/03/31 04:28:45;;;;;;;1.27;0.70;;;;;;;10.10;100.00;99691.09;5034751;28;101182;-29
2023/03/31 04:31:15;;;;;;;5.15;0.65;;;;;;;10.10;100.00;99700.06;5036593;27;98891;-28
2023/03/31 04:33:44;;;;;;;0.98;0.52;;;;;;;10.09;100.00;99692.06;5035612;28;96639;-29
2023/03/31 04:36:16;;;;;;;2.13;0.82;;;;;;;10.12;100.00;99681.84;5035306;27;96846;-29
2023/03/31 04:38:45;;;;;;;1.05;0.60;;;;;;;10.12;100.00;99681.84;5035313;28;100873;-31
2023/03/31 04:41:11;;;;;;;1.40;0.17;;;;;;;10.06;100.00;99671.53;5035535;27;101100;-29
2023/03/31 04:43:37;;;;;;;0.17;0.17;;;;;;;10.08;100.00;99668.69;5035577;28;96802;-29
2023/03/31 04:46:02;;;;;;;2.75;0.52;;;;;;;10.09;100.00;99660.47;5036911;27;96659;-29
2023/03/31 04:48:27;;;;;;;0.45;0.30;;;;;;;10.09;100.00;99657.75;5035811;27;97929;-29
2023/03/31 04:50:53;;;;;;;0.50;0.35;;;;;;;10.05;100.00;99648.16;5036055;27;97423;-30
2023/03/31 04:53:18;;;;;;;2.63;0.50;;;;;;;10.06;100.00;99640.88;5036944;27;96512;-29
2023/03/31 04:55:43;;;;;;;0.40;0.40;;;;;;;10.05;100.00;99642.75;5036623;28;100148;-29
2023/03/31 04:58:09;;;;;;;1.42;0.50;;;;;;;10.02;100.00;99640.28;5036730;28;103462;-30
2023/03/31 05:00:34;;;;;;;0.20;0.15;;;;;;;10.03;100.00;99627.63;5034993;28;99963;-29
2023/03/31 05:03:00;;;;;;;0.80;0.30;;;;;;;10.00;100.00;99624.16;5036467;27;96519;-29
2023/03/31 05:05:26;;;;;;;1.10;0.45;;;;;;;10.00;100.00;99629.56;5035482;28;96800;-29
2023/03/31 05:07:51;;;;;;;1.08;0.47;;;;;;;10.00;100.00;99617.91;5034778;28;100932;-29
2023/03/31 05:10:17;;;;;;;0.77;0.28;;;;;;;10.00;100.00;99623.31;5035891;27;103091;-29
2023/03/31 05:12:42;;;;;;;1.42;0.60;;;;;;;10.00;100.00;99609.78;5036181;28;96528;-28
2023/03/31 05:15:08;;;;;;;0.50;0.20;;;;;;;9.97;100.00;99602.78;5036309;27;96822;-29
2023/03/31 05:17:35;;;;;;;2.47;0.70;;;;;;;10.00;100.00;99607.06;5035872;27;99291;-29
2023/03/31 05:20:04;;;;;;;0.73;0.52;;;;;;;9.98;100.00;99601.78;5034582;28;100942;-28
2023/03/31 05:22:33;;;;;;;1.60;0.30;;;;;;;9.97;100.00;99602.78;5035006;28;96629;-29
2023/03/31 05:24:59;;;;;;;2.50;0.30;;;;;;;9.97;100.00;99605.47;5034818;28;97091;-29
2023/03/31 05:27:24;;;;;;;0.93;0.28;;;;;;;9.97;100.00;99599.22;5035269;27;99309;-29
2023/03/31 05:29:50;;;;;;;0.40;0.30;;;;;;;9.98;100.00;99595.50;5034646;28;100501;-29
2023/03/31 05:32:15;;;;;;;0.85;0.40;;;;;;;9.97;100.00;99588.41;5034752;27;96524;-29
2023/03/31 05:34:42;;;;;;;1.73;0.60;;;;;;;9.95;100.00;99591.22;5036261;27;96795;-29
2023/03/31 05:37:07;;;;;;;1.75;0.60;;;;;;;9.92;100.00;99588.75;5035145;27;98068;-29
2023/03/31 05:39:33;;;;;;;2.80;0.50;;;;;;;9.98;100.00;99587.41;5036092;27;97337;-29
2023/03/31 05:41:59;;;;;;;1.90;0.70;;;;;;;9.97;100.00;99573.03;5036134;27;96546;-29
2023/03/31 05:44:26;;;;;;;0.75;0.30;;;;;;;9.98;100.00;99572.03;5036080;27;96783;-30
2023/03/31 05:46:51;;;;;;;0.63;0.35;;;;;;;9.99;100.00;99571.06;5035388;28;99590;-29
2023/03/31 05:49:17;;;;;;;0.52;0.30;;;;;;;10.00;100.00;99574.63;5035298;27;99235;-29
2023/03/31 05:51:42;;;;;;;1.65;0.52;;;;;;;9.96;100.00;99573.13;5035878;28;96566;-29
2023/03/31 05:54:08;;;;;;;0.90;0.50;;;;;;;9.96;100.00;99565.00;5036430;27;96739;-29
2023/03/31 05:56:33;;;;;;;0.43;0.32;;;;;;;9.95;100.00;99566.00;5035517;27;98500;-29
2023/03/31 05:59:00;;;;;;;0.40;0.38;;;;;;;9.95;100.00;99572.28;5035550;28;97663;-29
2023/03/31 06:01:25;;;;;;;1.58;0.30;;;;;;;9.96;100.00;99567.72;5033523;27;96613;-29
2023/03/31 06:03:51;;;;;;;2.08;0.85;;;;;;;9.94;100.00;99564.31;5035784;27;96684;-29
2023/03/31 06:06:17;;;;;;;2.20;0.35;;;;;;;9.89;100.00;99548.44;5035349;28;100449;-29
2023/03/31 06:08:44;;;;;;;0.00;0.00;;;;;;;9.89;100.00;99552.97;5035329;27;97575;-28
2023/03/31 06:11:12;;;;;;;2.53;0.30;;;;;;;9.87;100.00;99550.41;5034192;28;96597;-30
2023/03/31 06:13:38;;;;;;;0.65;0.28;;;;;;;9.86;100.00;99545.09;5034001;28;96729;-29
2023/03/31 06:16:04;;;;;;;0.80;0.20;;;;;;;9.89;100.00;99558.38;5033768;28;100958;-29
2023/03/31 06:18:32;;;;;;;0.77;0.30;;;;;;;9.86;100.00;99547.81;5035287;27;98549;-29
2023/03/31 06:20:57;;;;;;;1.65;0.20;;;;;;;9.84;100.00;99542.50;5034087;28;96822;-29
2023/03/31 06:23:24;;;;;;;2.55;0.40;;;;;;;9.84;100.00;99531.69;5035284;27;96816;-29
2023/03/31 06:25:50;;;;;;;0.80;0.25;;;;;;;9.84;100.00;99550.63;5034393;28;99657;-29
2023/03/31 06:28:16;;;;;;;0.75;0.38;;;;;;;9.87;100.00;99552.25;5032522;28;100949;-29
2023/03/31 06:30:42;;;;;;;0.20;0.17;;;;;;;9.84;100.00;99536.25;5035227;28;96667;-29
2023/03/31 06:33:07;;;;;;;0.10;0.10;;;;;;;9.84;100.00;99538.94;5035481;27;96779;-29
2023/03/31 06:35:36;;;;;;;1.25;0.50;;;;;;;9.85;100.00;99535.28;5034575;27;99595;-28
2023/03/31 06:38:01;;;;;;;0.22;0.15;;;;;;;9.85;100.00;99533.44;5034773;27;97867;-29
2023/03/31 06:40:27;;;;;;;1.85;0.38;;;;;;;9.86;100.00;99527.03;5035368;27;96576;-30
2023/03/31 06:42:52;;;;;;;1.92;0.45;;;;;;;9.83;100.00;99521.03;5035405;27;96675;-29
2023/03/31 06:45:17;;;;;;;0.30;0.20;;;;;;;9.86;100.00;99513.50;5034911;27;97936;-29
2023/03/31 06:47:43;;;;;;;1.48;0.32;;;;;;;9.88;100.00;99516.09;5034666;27;99228;-29
2023/03/31 06:50:09;;;;;;;0.10;0.10;;;;;;;9.89;100.00;99512.41;5034728;27;96689;-29
2023/03/31 06:52:35;;;;;;;4.85;0.65;;;;;;;9.95;100.00;99511.91;5033583;28;96567;-29
2023/03/31 06:55:01;;;;;;;0.52;0.40;;;;;;;9.96;100.00;99508.22;5033193;28;100975;-29
2023/03/31 06:57:27;;;;;;;1.05;0.60;;;;;;;10.00;100.00;99507.00;5032845;28;100870;-29
2023/03/31 06:59:52;;;;;;;2.17;0.50;;;;;;;10.03;100.00;99503.16;5033581;28;96813;-30
2023/03/31 07:02:18;;;;;;;1.45;0.52;;;;;;;10.03;100.00;99498.63;5035007;27;96810;-29
2023/03/31 07:04:43;;;;;;;1.00;0.40;;;;;;;10.05;100.00;99495.78;5034672;27;98189;-29
2023/03/31 07:07:09;;;;;;;1.08;0.40;;;;;;;10.08;100.00;99501.84;5034807;27;99292;-29
2023/03/31 07:09:34;;;;;;;0.60;0.30;;;;;;;10.06;100.00;99492.97;5034862;27;96624;-29
2023/03/31 07:12:00;;;;;;;3.20;0.13;;;;;;;10.09;100.00;99495.44;5034503;27;97655;-28
2023/03/31 07:14:25;;;;;;;2.45;0.40;;;;;;;10.13;100.00;99493.31;5036010;28;99271;-29
2023/03/31 07:16:51;;;;;;;2.78;0.63;;;;;;;10.15;100.00;99486.81;5038208;27;97804;-29
2023/03/31 07:19:16;;;;;;;0.68;0.38;;;;;;;10.15;100.00;99481.41;5038095;27;96687;-30
2023/03/31 07:21:41;;;;;;;0.68;0.43;;;;;;;10.20;100.00;99478.28;5038333;27;96826;-29
2023/03/31 07:24:07;;;;;;;0.30;0.20;;;;;;;10.25;100.00;99477.91;5037681;27;99873;-29
2023/03/31 07:26:32;;;;;;;1.13;0.70;;;;;;;10.28;100.00;99475.88;5037549;27;98066;-29
2023/03/31 07:28:58;;;;;;;0.35;0.22;;;;;;;10.34;100.00;99488.88;5037554;27;97345;-29
2023/03/31 07:31:23;;;;;;;6.47;1.08;;;;;;;10.34;100.00;99475.34;5038422;27;96864;-29
2023/03/31 07:33:48;;;;;;;0.77;0.43;;;;;;;10.35;100.00;99471.66;5036110;27;97429;-29
2023/03/31 07:36:14;;;;;;;0.73;0.50;;;;;;;10.41;100.00;99475.69;5037313;27;103146;-29
2023/03/31 07:38:41;;;;;;;2.00;0.88;;;;;;;10.45;100.00;99479.88;5036683;27;96607;-29
2023/03/31 07:41:10;;;;;;;3.85;0.75;;;;;;;10.44;100.00;99483.59;5036400;27;96855;-29
2023/03/31 07:43:36;;;;;;;0.77;0.40;;;;;;;10.45;100.00;99479.03;5037501;27;99514;-30
2023/03/31 07:46:02;;;;;;;1.38;0.68;;;;;;;10.48;100.00;99473.34;5036131;28;101195;-29
2023/03/31 07:48:27;;;;;;;2.83;0.60;;;;;;;10.47;100.00;99486.03;5037877;28;96592;-30
2023/03/31 07:50:53;;;;;;;2.78;0.68;;;;;;;10.47;100.00;99468.94;5037874;28;96773;-28
2023/03/31 07:53:18;;;;;;;5.57;0.70;;;;;;;10.45;100.00;99460.94;5035934;28;100812;-29
2023/03/31 07:55:46;;;;;;;0.88;0.40;;;;;;;10.45;100.00;99458.22;5037217;27;99059;-34
2023/03/31 07:58:11;;;;;;;3.85;0.90;;;;;;;10.37;100.00;99458.88;5033559;28;96989;-29
2023/03/31 08:00:37;;;;;;;2.10;0.57;;;;;;;10.37;100.00;99452.59;5035250;27;97169;-30
2023/03/31 08:03:02;;;;;;;2.08;0.52;;;;;;;10.37;100.00;99449.91;5034621;27;98113;-32
2023/03/31 08:05:28;;;;;;;1.40;0.82;;;;;;;10.37;100.00;99434.50;5035292;27;97244;-32
2023/03/31 08:07:53;;;;;;;2.28;0.50;;;;;;;10.38;100.00;99432.66;5035161;27;96911;-31
2023/03/31 08:10:23;;;;;;;3.67;0.60;;;;;;;10.39;100.00;99434.38;5034822;27;97008;-29
2023/03/31 08:12:48;;;;;;;1.50;0.60;;;;;;;10.36;100.00;99429.22;5035044;27;101002;-30
2023/03/31 08:15:14;;;;;;;6.35;0.90;;;;;;;10.38;100.00;99430.81;5036514;28;115534;-29
2023/03/31 08:17:40;;;;;;;0.52;0.30;;;;;;;10.41;100.00;99433.25;5035857;28;96639;-30
2023/03/31 08:20:06;;;;;;;1.05;0.50;;;;;;;10.48;100.00;99438.16;5037710;28;96552;-29
2023/03/31 08:22:32;;;;;;;1.52;0.55;;;;;;;10.50;100.00;99439.75;5035661;27;100881;-29
2023/03/31 08:24:57;;;;;;;0.45;0.45;;;;;;;10.53;100.00;99419.66;5036684;27;97870;-30
2023/03/31 08:27:22;;;;;;;1.38;0.82;;;;;;;10.59;100.00;99425.44;5035906;27;96920;-29
2023/03/31 08:29:48;;;;;;;0.77;0.40;;;;;;;10.66;100.00;99420.38;5035790;28;96676;-29
2023/03/31 08:32:15;;;;;;;2.30;0.80;;;;;;;10.70;100.00;99411.00;5036582;27;99044;-29
2023/03/31 08:34:41;;;;;;;5.70;1.05;;;;;;;10.79;100.00;99415.59;5036744;28;98004;-29
2023/03/31 08:37:08;;;;;;;9.77;0.63;;;;;;;10.84;100.00;99409.78;5036600;27;96841;-28
2023/03/31 08:39:36;;;;;;;4.63;0.88;;;;;;;10.92;100.00;99410.00;5035278;28;96909;-29
2023/03/31 08:42:29;;;;;;;3.20;0.57;;;;;;;11.00;100.00;99406.63;5035402;28;100817;-28
2023/03/31 08:45:22;;;;;;;2.33;0.88;;;;;;;11.08;100.00;99412.22;5035733;27;100864;-29
2023/03/31 08:47:54;;;;;;;4.57;1.02;;;;;;;11.07;99.84;99386.13;5035390;28;96749;-28
2023/03/31 08:50:27;;;;;;;1.13;0.40;;;;;;;11.25;99.58;99395.38;5035585;27;96726;-29
2023/03/31 08:53:11;;;;;;;3.05;0.85;;;;;;;11.42;98.65;99393.88;5035860;28;99206;-29
2023/03/31 08:55:47;;;;;;;1.98;0.68;;;;;;;11.51;97.65;99391.34;5035147;28;99052;-29
2023/03/31 08:58:43;;;;;;;4.25;1.58;;;;;;;11.59;96.77;99386.09;5035112;28;96670;-28
2023/03/31 09:01:37;;;;;;;5.40;1.15;;;;;;;11.72;97.02;99389.41;5036812;28;96756;-29
2023/03/31 09:04:21;;;;;;;4.35;0.60;;;;;;;11.80;96.80;99389.59;5034899;28;101185;-29
2023/03/31 09:06:58;;;;;;;4.20;1.15;;;;;;;11.81;95.51;99394.00;5036580;27;98436;-29
2023/03/31 09:09:50;;;;;;;6.00;1.50;;;;;;;11.73;94.65;99390.25;5035163;28;96764;-29
2023/03/31 09:12:24;;;;;;;3.08;0.95;;;;;;;11.65;94.43;99401.81;5035560;28;96675;-29
2023/03/31 09:14:53;;;;;;;5.35;1.17;;;;;;;11.58;94.97;99371.66;5034535;28;99615;-28
2023/03/31 09:17:25;;;;;;;5.03;1.20;;;;;;;11.53;95.02;99362.22;5034707;28;100946;-29
2023/03/31 09:20:01;;;;;;;10.75;1.20;;;;;;;11.62;95.39;99370.41;5035949;28;96593;-28
2023/03/31 09:22:32;;;;;;;4.95;0.93;;;;;;;11.69;95.26;99371.56;5034960;28;96692;-29
2023/03/31 09:25:00;;;;;;;2.63;0.32;;;;;;;11.67;94.43;99359.13;5034645;28;101521;-29
2023/03/31 09:27:27;;;;;;;4.63;0.70;;;;;;;11.66;94.46;99352.00;5035019;28;97160;-29
2023/03/31 09:30:04;;;;;;;3.63;0.93;;;;;;;11.66;93.95;99365.56;5036165;27;96617;-30
2023/03/31 09:32:31;;;;;;;6.45;0.90;;;;;;;11.68;94.34;99353.59;5036286;27;96636;-29
2023/03/31 09:35:11;;;;;;;5.18;0.95;;;;;;;11.73;94.53;99347.75;5033773;27;101074;-29
2023/03/31 09:37:37;;;;;;;1.17;0.47;;;;;;;11.65;93.26;99353.00;5034715;28;101044;-29
2023/03/31 09:40:09;;;;;;;2.92;0.77;;;;;;;11.61;93.36;99336.16;5036118;27;96606;-29
2023/03/31 09:42:35;;;;;;;3.45;0.77;;;;;;;11.58;93.07;99344.53;5036129;27;96572;-28
2023/03/31 09:45:01;;;;;;;1.95;0.80;;;;;;;11.56;92.51;99337.53;5033698;28;101139;-29
2023/03/31 09:47:38;;;;;;;3.92;1.02;;;;;;;11.56;92.50;99335.72;5035831;28;98161;-29
2023/03/31 09:50:06;;;;;;;4.43;0.70;;;;;;;11.63;92.74;99336.88;5034418;28;96581;-31
2023/03/31 09:52:36;;;;;;;2.20;0.90;;;;;;;11.71;92.74;99319.03;5035996;27;96744;-29
2023/03/31 09:55:05;;;;;;;1.45;0.55;;;;;;;11.68;91.35;99329.19;5033999;28;100961;-30
2023/03/31 09:57:38;;;;;;;2.10;1.00;;;;;;;11.69;91.10;99332.75;5033974;28;101051;-29
2023/03/31 10:00:14;;;;;;;13.50;1.52;;;;;;;11.70;91.43;99320.88;5034564;28;96696;-29
2023/03/31 10:02:51;;;;;;;3.28;0.73;;;;;;;11.72;91.34;99326.19;5034744;27;96820;-29
2023/03/31 10:05:36;;;;;;;4.15;1.02;;;;;;;11.76;91.75;99327.63;5033851;28;101368;-29
2023/03/31 10:08:13;;;;;;;4.65;0.80;;;;;;;11.73;91.86;99330.59;5035273;28;99111;-30
2023/03/31 10:10:44;;;;;;;1.63;0.55;;;;;;;11.67;91.89;99329.31;5035059;27;96612;-29
2023/03/31 10:13:13;;;;;;;3.22;0.55;;;;;;;11.63;91.38;99320.59;5033934;28;96782;-29
2023/03/31 10:15:40;;;;;;;3.97;0.68;;;;;;;11.59;91.28;99313.72;5033658;28;100987;-30
2023/03/31 10:18:05;;;;;;;14.02;1.40;;;;;;;11.53;91.62;99324.28;5035462;27;97232;-29
2023/03/31 10:20:38;;;;;;;4.93;1.05;;;;;;;11.48;92.25;99330.09;5035247;27;97390;-29
2023/03/31 10:23:31;;;;;;;2.83;1.05;;;;;;;11.38;92.74;99330.06;5035473;27;96747;-29
2023/03/31 10:25:57;;;;;;;;;;;;;;;11.38;93.54;99323.81;5032490;27;99861;-29
2023/03/31 10:28:23;;;;;;;2.60;0.65;;;;;;;11.31;93.58;99328.91;5034769;28;97273;-29
2023/03/31 10:30:51;;;;;;;2.95;0.50;;;;;;;11.21;94.53;99334.28;5033714;28;96630;-30
2023/03/31 10:33:22;;;;;;;3.13;1.02;;;;;;;11.21;94.70;99322.59;5033837;28;96802;-30
2023/03/31 10:35:53;;;;;;;1.38;0.45;;;;;;;11.24;94.62;99341.28;5034277;27;99267;-29
2023/03/31 10:38:29;;;;;;;4.83;0.70;;;;;;;11.19;95.73;99335.44;5034933;27;98020;-29
2023/03/31 10:40:57;;;;;;;3.25;0.95;;;;;;;11.15;95.78;99326.69;5035031;28;96455;-29
2023/03/31 10:43:33;;;;;;;5.15;1.08;;;;;;;11.17;95.66;99323.84;5033856;28;96755;-29
2023/03/31 10:45:59;;;;;;;1.60;0.45;;;;;;;11.15;95.50;99321.28;5033485;28;100816;-29
2023/03/31 10:48:45;;;;;;;9.60;0.50;;;;;;;11.17;95.01;99311.16;5033344;27;99399;-30
2023/03/31 10:51:20;;;;;;;1.05;0.52;;;;;;;11.22;95.49;99317.03;5033533;28;96688;-29
2023/03/31 10:53:47;;;;;;;2.20;0.50;;;;;;;11.20;94.60;99307.31;5033961;28;96845;-29
2023/03/31 10:56:33;;;;;;;2.78;0.68;;;;;;;11.17;94.34;99307.59;5033189;28;100869;-28
2023/03/31 10:59:24;;;;;;;4.03;0.40;;;;;;;11.19;94.20;99302.91;5033046;28;100836;-29
2023/03/31 11:01:55;;;;;;;5.25;1.23;;;;;;;11.24;94.69;99297.91;5032976;28;96598;-29
2023/03/31 11:04:44;;;;;;;1.25;0.60;;;;;;;11.24;94.50;99292.50;5033436;28;96704;-29
2023/03/31 11:07:28;;;;;;;0.85;0.40;;;;;;;11.20;94.19;99301.91;5033177;28;100727;-29
2023/03/31 11:10:08;;;;;;;8.20;1.08;;;;;;;11.23;94.62;99288.09;5034678;28;97936;-31
2023/03/31 11:12:51;;;;;;;1.10;0.50;;;;;;;11.21;95.11;99306.34;5034942;27;97200;-28
2023/03/31 11:15:26;;;;;;;0.82;0.38;;;;;;;11.19;95.25;99278.50;5033460;28;96682;-30
2023/03/31 11:18:00;;;;;;;1.55;0.43;;;;;;;11.19;95.43;99286.63;5032665;28;100770;-29
2023/03/31 11:20:51;;;;;;;1.85;0.90;;;;;;;11.14;94.30;99295.19;5033249;28;100864;-30
2023/03/31 11:23:29;;;;;;;1.75;0.80;;;;;;;11.18;95.08;99287.66;5010099;27;96745;-29
2023/03/31 11:26:09;;;;;;;2.65;0.30;;;;;;;11.23;93.50;99290.81;5033225;28;96676;-31
2023/03/31 11:28:55;;;;;;;1.23;0.55;;;;;;;11.29;94.05;99292.94;5031892;28;100870;-28
2023/03/31 11:31:49;;;;;;;1.60;0.63;;;;;;;11.31;92.93;99295.53;5032640;28;101168;-29
2023/03/31 11:34:17;;;;;;;1.33;0.40;;;;;;;11.32;92.75;99289.09;5034706;28;96593;-29
2023/03/31 11:37:16;;;;;;;1.70;0.55;;;;;;;11.34;92.91;99281.69;5032676;28;96784;-29
2023/03/31 11:40:05;;;;;;;4.00;0.77;;;;;;;11.33;93.09;99283.56;5034278;28;97506;-29
2023/03/31 11:42:47;;;;;;;1.27;0.45;;;;;;;11.29;93.24;99276.69;5034241;28;98459;-29